Terminal Aerodrome Forecast
Issued by NWS

Home | Current Version | Previous Version | Text Only | Print | Product List | Glossary On
Versions: 1 2 3 4 5 6 7 8 9 10 11 12 13 14 15 16 17 18
000
FTUS44 KSJT 232320
TAFJCT
TAF
KJCT 232320Z 2400/2424 16015G25KT P6SM SCT250
     FM241000 16013G20KT P6SM VCTS BKN025CB
     FM241300 24012KT P6SM SCT050
     FM241600 25013G20KT P6SM SKC=

USA.gov is the U.S. government's official web portal to all federal, state and local government web resources and services.